Capitol Logistics 2391

Operating for ATN



PHNL
Daniel K Inouye International Airport
Honolulu, Hawaii
PKWA
Bucholz AAF Airport
Kwajalein Atoll, Marshall Islands

Activity Log

Date Flight Route Aircraft Duration
No Flights Yet

Route Details

Aircraft Information
Primary: Boeing 757-200SF
Backup: Not Available
Route Data
Distance: 2127nm
Duration: 4h 46m
Recm'd Route: OPIHI2 CHOKO R584 MCFLY R584 MAZZA 1000N/17300E NDJ
Origin Wx: PHNL 141953Z 02010KT 10SM FEW025 SCT045 26/14 A3012 RMK AO2 SLP200 T02560139 $
Dest. Wx: PKWA 141940Z AUTO 07009KT 10SM CLR 27/23 A2982 RMK AO2 T02720232
Notes: USTRANSCOM CONTRACT FLIGHT | 1X PER WEEK | LIMITED FUEL AVBL TO NON-DOD ACFT